sensor_id;sensor_type;location;lat;lon;timestamp;P1;durP1;ratioP1;P2;durP2;ratioP2
1024;SDS011;501;48.214;11.350;2024-02-26T00:30:14;12.70;;;9.27;;
1024;SDS011;501;48.214;11.350;2024-02-26T00:32:40;12.87;;;9.53;;
1024;SDS011;501;48.214;11.350;2024-02-26T00:35:06;13.27;;;10.90;;
1024;SDS011;501;48.214;11.350;2024-02-26T00:37:31;13.87;;;10.23;;
1024;SDS011;501;48.214;11.350;2024-02-26T00:39:57;12.10;;;9.37;;
1024;SDS011;501;48.214;11.350;2024-02-26T06:11:13;15.43;;;10.60;;
1024;SDS011;501;48.214;11.350;2024-02-26T06:13:39;16.30;;;12.83;;
1024;SDS011;501;48.214;11.350;2024-02-26T06:16:04;16.10;;;12.27;;
1024;SDS011;501;48.214;11.350;2024-02-26T06:18:30;15.63;;;12.23;;
1024;SDS011;501;48.214;11.350;2024-02-26T06:28:42;14.47;;;10.87;;
1024;SDS011;501;48.214;11.350;2024-02-26T06:31:08;15.30;;;11.50;;
1024;SDS011;501;48.214;11.350;2024-02-26T06:33:34;15.73;;;10.97;;
1024;SDS011;501;48.214;11.350;2024-02-26T06:35:59;15.73;;;10.60;;
1024;SDS011;501;48.214;11.350;2024-02-26T06:38:25;15.43;;;10.50;;
1024;SDS011;501;48.214;11.350;2024-02-26T06:40:51;14.77;;;10.70;;
1024;SDS011;501;48.214;11.350;2024-02-26T06:43:16;13.57;;;9.87;;
1024;SDS011;501;48.214;11.350;2024-02-26T06:45:42;18.60;;;11.47;;
1024;SDS011;501;48.214;11.350;2024-02-26T06:48:08;15.00;;;10.80;;
1024;SDS011;501;48.214;11.350;2024-02-26T06:50:33;17.30;;;10.77;;
1024;SDS011;501;48.214;11.350;2024-02-26T06:52:59;12.83;;;10.90;;
1024;SDS011;501;48.214;11.350;2024-02-26T06:55:24;14.07;;;9.90;;
1024;SDS011;501;48.214;11.350;2024-02-26T06:57:50;11.53;;;9.33;;
1024;SDS011;501;48.214;11.350;2024-02-26T07:00:16;14.67;;;10.57;;
1024;SDS011;501;48.214;11.350;2024-02-26T07:02:42;14.53;;;10.97;;
1024;SDS011;501;48.214;11.350;2024-02-26T07:05:08;12.53;;;9.97;;
1024;SDS011;501;48.214;11.350;2024-02-26T07:07:34;12.77;;;10.03;;
1024;SDS011;501;48.214;11.350;2024-02-26T07:10:00;15.40;;;10.83;;
1024;SDS011;501;48.214;11.350;2024-02-26T07:12:28;14.13;;;10.20;;
1024;SDS011;501;48.214;11.350;2024-02-26T07:14:54;17.37;;;11.40;;
1024;SDS011;501;48.214;11.350;2024-02-26T07:17:20;17.57;;;11.33;;
1024;SDS011;501;48.214;11.350;2024-02-26T07:19:45;16.67;;;10.97;;
1024;SDS011;501;48.214;11.350;2024-02-26T07:22:11;17.27;;;11.10;;
1024;SDS011;501;48.214;11.350;2024-02-26T07:24:37;12.33;;;9.93;;
1024;SDS011;501;48.214;11.350;2024-02-26T07:27:03;14.87;;;11.50;;
1024;SDS011;501;48.214;11.350;2024-02-26T07:29:29;14.00;;;10.90;;
1024;SDS011;501;48.214;11.350;2024-02-26T07:31:55;16.97;;;10.87;;
1024;SDS011;501;48.214;11.350;2024-02-26T07:34:21;14.77;;;10.83;;
1024;SDS011;501;48.214;11.350;2024-02-26T07:36:52;15.40;;;11.03;;
1024;SDS011;501;48.214;11.350;2024-02-26T07:39:18;15.07;;;9.87;;
1024;SDS011;501;48.214;11.350;2024-02-26T07:41:44;15.63;;;10.93;;
1024;SDS011;501;48.214;11.350;2024-02-26T07:44:13;13.77;;;9.93;;
1024;SDS011;501;48.214;11.350;2024-02-26T07:46:39;18.47;;;10.73;;
1024;SDS011;501;48.214;11.350;2024-02-26T07:49:05;14.40;;;10.93;;
1024;SDS011;501;48.214;11.350;2024-02-26T07:51:30;12.83;;;10.50;;
1024;SDS011;501;48.214;11.350;2024-02-26T07:53:56;17.07;;;11.20;;
1024;SDS011;501;48.214;11.350;2024-02-26T07:56:22;13.63;;;11.17;;
1024;SDS011;501;48.214;11.350;2024-02-26T07:58:47;16.00;;;10.50;;
1024;SDS011;501;48.214;11.350;2024-02-26T08:01:13;13.90;;;10.20;;
1024;SDS011;501;48.214;11.350;2024-02-26T08:03:42;14.73;;;11.67;;
1024;SDS011;501;48.214;11.350;2024-02-26T08:06:08;14.30;;;10.63;;
1024;SDS011;501;48.214;11.350;2024-02-26T08:08:33;14.90;;;10.17;;
1024;SDS011;501;48.214;11.350;2024-02-26T08:10:59;13.93;;;11.40;;
1024;SDS011;501;48.214;11.350;2024-02-26T08:13:25;14.73;;;10.70;;
1024;SDS011;501;48.214;11.350;2024-02-26T08:15:51;15.43;;;11.73;;
1024;SDS011;501;48.214;11.350;2024-02-26T08:18:17;16.30;;;11.53;;
1024;SDS011;501;48.214;11.350;2024-02-26T08:20:44;15.90;;;11.00;;
1024;SDS011;501;48.214;11.350;2024-02-26T08:23:09;15.33;;;11.47;;
1024;SDS011;501;48.214;11.350;2024-02-26T08:25:35;14.10;;;10.77;;
1024;SDS011;501;48.214;11.350;2024-02-26T08:28:01;18.17;;;11.47;;
1024;SDS011;501;48.214;11.350;2024-02-26T08:30:26;14.53;;;10.60;;
1024;SDS011;501;48.214;11.350;2024-02-26T08:35:30;15.10;;;11.37;;
1024;SDS011;501;48.214;11.350;2024-02-26T08:37:56;16.33;;;11.33;;
1024;SDS011;501;48.214;11.350;2024-02-26T08:40:22;15.03;;;10.77;;
1024;SDS011;501;48.214;11.350;2024-02-26T08:42:47;18.00;;;11.10;;
1024;SDS011;501;48.214;11.350;2024-02-26T08:45:13;15.80;;;11.53;;
1024;SDS011;501;48.214;11.350;2024-02-26T08:47:39;16.10;;;11.07;;
1024;SDS011;501;48.214;11.350;2024-02-26T08:50:05;15.33;;;10.50;;
1024;SDS011;501;48.214;11.350;2024-02-26T08:52:33;15.60;;;9.50;;
1024;SDS011;501;48.214;11.350;2024-02-26T08:54:58;11.90;;;10.40;;
1024;SDS011;501;48.214;11.350;2024-02-26T08:57:24;13.27;;;10.70;;
1024;SDS011;501;48.214;11.350;2024-02-26T08:59:52;17.33;;;10.47;;
1024;SDS011;501;48.214;11.350;2024-02-26T09:02:17;11.90;;;10.03;;
1024;SDS011;501;48.214;11.350;2024-02-26T09:04:44;14.23;;;10.60;;
1024;SDS011;501;48.214;11.350;2024-02-26T09:07:10;15.70;;;10.60;;
1024;SDS011;501;48.214;11.350;2024-02-26T09:09:36;14.43;;;10.70;;
1024;SDS011;501;48.214;11.350;2024-02-26T09:12:03;15.93;;;11.07;;
1024;SDS011;501;48.214;11.350;2024-02-26T09:14:29;13.70;;;10.97;;
1024;SDS011;501;48.214;11.350;2024-02-26T09:16:54;13.50;;;9.93;;
1024;SDS011;501;48.214;11.350;2024-02-26T09:19:20;15.83;;;11.00;;
1024;SDS011;501;48.214;11.350;2024-02-26T09:37:21;16.00;;;11.27;;
1024;SDS011;501;48.214;11.350;2024-02-26T09:39:46;15.47;;;8.50;;
1024;SDS011;501;48.214;11.350;2024-02-26T09:42:12;14.20;;;10.17;;
1024;SDS011;501;48.214;11.350;2024-02-26T09:44:39;14.80;;;9.80;;
1024;SDS011;501;48.214;11.350;2024-02-26T09:47:08;11.80;;;9.27;;
1024;SDS011;501;48.214;11.350;2024-02-26T09:49:36;15.40;;;9.80;;
1024;SDS011;501;48.214;11.350;2024-02-26T09:54:30;14.50;;;10.23;;
1024;SDS011;501;48.214;11.350;2024-02-26T09:57:00;11.20;;;9.13;;
1024;SDS011;501;48.214;11.350;2024-02-26T09:59:36;11.73;;;9.60;;
1024;SDS011;501;48.214;11.350;2024-02-26T10:23:27;10.10;;;7.90;;
1024;SDS011;501;48.214;11.350;2024-02-26T10:25:56;9.20;;;6.80;;
1024;SDS011;501;48.214;11.350;2024-02-26T10:28:22;6.53;;;5.73;;
1024;SDS011;501;48.214;11.350;2024-02-26T10:30:48;9.63;;;6.37;;
1024;SDS011;501;48.214;11.350;2024-02-26T10:33:14;8.67;;;5.30;;
1024;SDS011;501;48.214;11.350;2024-02-26T10:35:40;6.67;;;4.80;;
1024;SDS011;501;48.214;11.350;2024-02-26T10:38:11;7.70;;;4.83;;
1024;SDS011;501;48.214;11.350;2024-02-26T10:40:37;6.60;;;4.80;;
1024;SDS011;501;48.214;11.350;2024-02-26T10:43:03;7.17;;;4.60;;
1024;SDS011;501;48.214;11.350;2024-02-26T10:45:28;5.23;;;4.40;;
1024;SDS011;501;48.214;11.350;2024-02-26T10:47:54;5.50;;;4.77;;
1024;SDS011;501;48.214;11.350;2024-02-26T10:50:19;7.47;;;4.77;;
1024;SDS011;501;48.214;11.350;2024-02-26T10:52:45;6.50;;;4.57;;
1024;SDS011;501;48.214;11.350;2024-02-26T10:55:13;4.17;;;3.70;;
1024;SDS011;501;48.214;11.350;2024-02-26T10:57:43;6.83;;;4.63;;
1024;SDS011;501;48.214;11.350;2024-02-26T11:00:10;4.00;;;3.60;;
1024;SDS011;501;48.214;11.350;2024-02-26T11:02:40;7.30;;;3.83;;
1024;SDS011;501;48.214;11.350;2024-02-26T11:05:07;4.43;;;3.47;;
1024;SDS011;501;48.214;11.350;2024-02-26T11:07:36;5.60;;;3.30;;
1024;SDS011;501;48.214;11.350;2024-02-26T11:10:03;3.67;;;2.77;;
1024;SDS011;501;48.214;11.350;2024-02-26T11:12:31;9.73;;;3.13;;
1024;SDS011;501;48.214;11.350;2024-02-26T11:15:00;5.40;;;3.13;;
1024;SDS011;501;48.214;11.350;2024-02-26T11:17:27;3.20;;;2.50;;
1024;SDS011;501;48.214;11.350;2024-02-26T11:19:57;2.77;;;2.33;;
1024;SDS011;501;48.214;11.350;2024-02-26T11:25:02;3.40;;;2.73;;
1024;SDS011;501;48.214;11.350;2024-02-26T11:27:42;4.07;;;2.37;;
1024;SDS011;501;48.214;11.350;2024-02-26T11:30:11;3.97;;;2.73;;
1024;SDS011;501;48.214;11.350;2024-02-26T11:40:28;2.80;;;2.30;;
1024;SDS011;501;48.214;11.350;2024-02-26T11:50:38;2.27;;;1.80;;
1024;SDS011;501;48.214;11.350;2024-02-26T11:53:22;1.63;;;1.53;;
1024;SDS011;501;48.214;11.350;2024-02-26T11:58:41;2.40;;;1.53;;
1024;SDS011;501;48.214;11.350;2024-02-26T12:04:04;4.60;;;1.50;;
1024;SDS011;501;48.214;11.350;2024-02-26T12:06:31;2.73;;;1.33;;
1024;SDS011;501;48.214;11.350;2024-02-26T12:09:09;1.27;;;1.17;;
1024;SDS011;501;48.214;11.350;2024-02-26T12:11:38;1.70;;;1.20;;
1024;SDS011;501;48.214;11.350;2024-02-26T12:14:05;1.43;;;1.33;;
1024;SDS011;501;48.214;11.350;2024-02-26T12:19:05;2.10;;;1.77;;
1024;SDS011;501;48.214;11.350;2024-02-26T12:21:35;1.97;;;1.50;;
1024;SDS011;501;48.214;11.350;2024-02-26T12:24:11;8.90;;;2.13;;
1024;SDS011;501;48.214;11.350;2024-02-26T12:26:39;2.07;;;1.87;;
1024;SDS011;501;48.214;11.350;2024-02-26T12:29:05;1.63;;;1.53;;
1024;SDS011;501;48.214;11.350;2024-02-26T12:36:48;1.93;;;1.60;;
1024;SDS011;501;48.214;11.350;2024-02-26T12:39:14;3.30;;;2.07;;
1024;SDS011;501;48.214;11.350;2024-02-26T12:44:30;1.80;;;1.27;;
1024;SDS011;501;48.214;11.350;2024-02-26T12:47:02;3.07;;;1.70;;
1024;SDS011;501;48.214;11.350;2024-02-26T12:49:31;2.63;;;1.80;;
1024;SDS011;501;48.214;11.350;2024-02-26T12:51:56;2.13;;;1.33;;
1024;SDS011;501;48.214;11.350;2024-02-26T12:54:32;2.80;;;1.50;;
1024;SDS011;501;48.214;11.350;2024-02-26T12:57:06;1.73;;;1.63;;
1024;SDS011;501;48.214;11.350;2024-02-26T12:59:34;3.07;;;1.83;;
1024;SDS011;501;48.214;11.350;2024-02-26T13:02:01;2.03;;;1.83;;
1024;SDS011;501;48.214;11.350;2024-02-26T13:04:28;2.40;;;2.20;;
1024;SDS011;501;48.214;11.350;2024-02-26T13:06:55;3.03;;;2.60;;
1024;SDS011;501;48.214;11.350;2024-02-26T13:09:27;2.20;;;2.00;;
1024;SDS011;501;48.214;11.350;2024-02-26T13:11:53;2.90;;;2.00;;
1024;SDS011;501;48.214;11.350;2024-02-26T13:14:22;2.50;;;2.30;;
1024;SDS011;501;48.214;11.350;2024-02-26T13:16:54;2.67;;;2.10;;
1024;SDS011;501;48.214;11.350;2024-02-26T13:19:21;2.20;;;2.00;;
1024;SDS011;501;48.214;11.350;2024-02-26T13:21:46;3.37;;;2.13;;
1024;SDS011;501;48.214;11.350;2024-02-26T13:24:12;2.10;;;1.90;;
1024;SDS011;501;48.214;11.350;2024-02-26T13:26:39;2.43;;;1.93;;
1024;SDS011;501;48.214;11.350;2024-02-26T13:29:04;2.00;;;1.80;;
1024;SDS011;501;48.214;11.350;2024-02-26T13:31:30;2.33;;;2.13;;
1024;SDS011;501;48.214;11.350;2024-02-26T13:33:56;1.10;;;1.00;;
1024;SDS011;501;48.214;11.350;2024-02-26T13:36:22;2.50;;;1.60;;
1024;SDS011;501;48.214;11.350;2024-02-26T13:38:52;2.23;;;1.67;;
1024;SDS011;501;48.214;11.350;2024-02-26T13:41:19;2.30;;;2.10;;
1024;SDS011;501;48.214;11.350;2024-02-26T13:43:46;2.07;;;1.87;;
1024;SDS011;501;48.214;11.350;2024-02-26T13:46:12;1.70;;;1.60;;
1024;SDS011;501;48.214;11.350;2024-02-26T13:48:40;2.47;;;2.10;;
1024;SDS011;501;48.214;11.350;2024-02-26T13:51:06;4.17;;;2.30;;
1024;SDS011;501;48.214;11.350;2024-02-26T13:53:32;3.33;;;2.60;;
1024;SDS011;501;48.214;11.350;2024-02-26T13:55:58;3.40;;;3.10;;
1024;SDS011;501;48.214;11.350;2024-02-26T13:58:26;3.90;;;2.60;;
1024;SDS011;501;48.214;11.350;2024-02-26T14:00:52;3.10;;;2.80;;
1024;SDS011;501;48.214;11.350;2024-02-26T14:03:19;3.40;;;2.33;;
1024;SDS011;501;48.214;11.350;2024-02-26T14:05:45;2.53;;;2.33;;
1024;SDS011;501;48.214;11.350;2024-02-26T14:08:11;3.40;;;2.00;;
1024;SDS011;501;48.214;11.350;2024-02-26T14:10:36;2.20;;;2.00;;
1024;SDS011;501;48.214;11.350;2024-02-26T14:13:02;5.70;;;2.67;;
1024;SDS011;501;48.214;11.350;2024-02-26T14:15:28;2.50;;;2.30;;
1024;SDS011;501;48.214;11.350;2024-02-26T14:17:54;2.70;;;2.50;;
1024;SDS011;501;48.214;11.350;2024-02-26T14:20:21;2.00;;;1.77;;
1024;SDS011;501;48.214;11.350;2024-02-26T14:22:48;2.30;;;2.10;;
1024;SDS011;501;48.214;11.350;2024-02-26T14:25:14;2.23;;;2.03;;
1024;SDS011;501;48.214;11.350;2024-02-26T14:27:39;3.03;;;2.67;;
1024;SDS011;501;48.214;11.350;2024-02-26T14:30:05;3.83;;;1.70;;
1024;SDS011;501;48.214;11.350;2024-02-26T14:32:31;2.67;;;2.10;;
1024;SDS011;501;48.214;11.350;2024-02-26T14:35:02;1.83;;;1.60;;
1024;SDS011;501;48.214;11.350;2024-02-26T14:37:35;1.50;;;1.40;;
1024;SDS011;501;48.214;11.350;2024-02-26T14:40:01;1.87;;;1.67;;
1024;SDS011;501;48.214;11.350;2024-02-26T14:42:30;5.80;;;1.60;;
1024;SDS011;501;48.214;11.350;2024-02-26T14:44:56;1.70;;;1.50;;
1024;SDS011;501;48.214;11.350;2024-02-26T14:47:22;1.80;;;1.57;;
1024;SDS011;501;48.214;11.350;2024-02-26T14:49:47;3.40;;;1.70;;
1024;SDS011;501;48.214;11.350;2024-02-26T14:52:13;1.87;;;1.77;;
1024;SDS011;501;48.214;11.350;2024-02-26T14:54:40;3.07;;;1.90;;
1024;SDS011;501;48.214;11.350;2024-02-26T14:57:06;2.53;;;1.83;;
1024;SDS011;501;48.214;11.350;2024-02-26T14:59:32;2.00;;;1.90;;
1024;SDS011;501;48.214;11.350;2024-02-26T15:01:58;1.63;;;1.53;;
1024;SDS011;501;48.214;11.350;2024-02-26T15:04:27;6.90;;;2.20;;
1024;SDS011;501;48.214;11.350;2024-02-26T15:06:53;1.83;;;1.67;;
1024;SDS011;501;48.214;11.350;2024-02-26T15:09:19;6.07;;;2.10;;
1024;SDS011;501;48.214;11.350;2024-02-26T15:11:45;2.30;;;1.70;;
1024;SDS011;501;48.214;11.350;2024-02-26T15:14:11;1.87;;;1.67;;
1024;SDS011;501;48.214;11.350;2024-02-26T15:16:37;1.87;;;1.67;;
1024;SDS011;501;48.214;11.350;2024-02-26T15:19:02;1.70;;;1.60;;
1024;SDS011;501;48.214;11.350;2024-02-26T15:21:29;1.73;;;1.63;;
1024;SDS011;501;48.214;11.350;2024-02-26T15:23:55;1.70;;;1.60;;
1024;SDS011;501;48.214;11.350;2024-02-26T15:26:21;2.43;;;1.90;;
1024;SDS011;501;48.214;11.350;2024-02-26T15:28:47;1.97;;;1.80;;
1024;SDS011;501;48.214;11.350;2024-02-26T15:31:13;3.00;;;1.57;;
1024;SDS011;501;48.214;11.350;2024-02-26T15:33:41;1.77;;;1.57;;
1024;SDS011;501;48.214;11.350;2024-02-26T15:36:07;1.90;;;1.63;;
1024;SDS011;501;48.214;11.350;2024-02-26T15:38:36;2.07;;;1.87;;
1024;SDS011;501;48.214;11.350;2024-02-26T15:41:03;2.03;;;1.40;;
1024;SDS011;501;48.214;11.350;2024-02-26T15:43:36;1.90;;;1.80;;
1024;SDS011;501;48.214;11.350;2024-02-26T15:46:02;3.60;;;2.27;;
1024;SDS011;501;48.214;11.350;2024-02-26T15:48:28;2.53;;;1.73;;
1024;SDS011;501;48.214;11.350;2024-02-26T15:50:54;2.27;;;2.07;;
1024;SDS011;501;48.214;11.350;2024-02-26T15:53:19;2.23;;;2.03;;
1024;SDS011;501;48.214;11.350;2024-02-26T15:55:45;1.83;;;1.60;;
1024;SDS011;501;48.214;11.350;2024-02-26T15:58:11;1.63;;;1.53;;
1024;SDS011;501;48.214;11.350;2024-02-26T16:11:55;3.67;;;2.17;;
1024;SDS011;501;48.214;11.350;2024-02-26T16:16:52;3.67;;;1.70;;
1024;SDS011;501;48.214;11.350;2024-02-26T16:19:22;6.70;;;2.17;;
1024;SDS011;501;48.214;11.350;2024-02-26T16:21:48;2.10;;;1.50;;
1024;SDS011;501;48.214;11.350;2024-02-26T16:24:14;1.87;;;1.70;;
1024;SDS011;501;48.214;11.350;2024-02-26T16:26:39;1.30;;;1.20;;
1024;SDS011;501;48.214;11.350;2024-02-26T16:29:06;2.00;;;1.80;;
1024;SDS011;501;48.214;11.350;2024-02-26T17:18:26;2.50;;;2.30;;
1024;SDS011;501;48.214;11.350;2024-02-26T17:26:30;3.70;;;2.00;;
1024;SDS011;501;48.214;11.350;2024-02-26T17:28:57;2.83;;;1.90;;
1024;SDS011;501;48.214;11.350;2024-02-26T17:31:26;2.80;;;2.10;;
1024;SDS011;501;48.214;11.350;2024-02-26T17:33:54;2.77;;;2.57;;
1024;SDS011;501;48.214;11.350;2024-02-26T17:36:21;2.87;;;2.67;;
1024;SDS011;501;48.214;11.350;2024-02-26T17:38:47;4.07;;;2.30;;
1024;SDS011;501;48.214;11.350;2024-02-26T17:43:49;3.50;;;2.10;;
1024;SDS011;501;48.214;11.350;2024-02-26T17:46:15;2.60;;;2.33;;
1024;SDS011;501;48.214;11.350;2024-02-26T17:48:40;4.63;;;2.60;;
1024;SDS011;501;48.214;11.350;2024-02-26T17:51:07;2.67;;;2.47;;
1024;SDS011;501;48.214;11.350;2024-02-26T17:53:33;3.10;;;2.90;;
1024;SDS011;501;48.214;11.350;2024-02-26T17:55:59;3.90;;;2.70;;
1024;SDS011;501;48.214;11.350;2024-02-26T17:58:31;4.20;;;2.80;;
1024;SDS011;501;48.214;11.350;2024-02-26T18:00:57;3.43;;;3.10;;
1024;SDS011;501;48.214;11.350;2024-02-26T18:03:22;7.50;;;3.50;;
1024;SDS011;501;48.214;11.350;2024-02-26T18:05:48;3.30;;;2.70;;
1024;SDS011;501;48.214;11.350;2024-02-26T18:08:14;4.03;;;2.97;;
1024;SDS011;501;48.214;11.350;2024-02-26T18:28:48;4.77;;;3.30;;
1024;SDS011;501;48.214;11.350;2024-02-26T18:31:15;5.77;;;3.60;;
1024;SDS011;501;48.214;11.350;2024-02-26T18:33:40;3.30;;;3.00;;
1024;SDS011;501;48.214;11.350;2024-02-26T18:36:06;3.10;;;2.90;;
1024;SDS011;501;48.214;11.350;2024-02-26T18:38:33;4.30;;;3.13;;
1024;SDS011;501;48.214;11.350;2024-02-26T18:41:00;3.80;;;3.40;;
1024;SDS011;501;48.214;11.350;2024-02-26T18:43:26;4.50;;;3.20;;
1024;SDS011;501;48.214;11.350;2024-02-26T18:45:52;4.00;;;3.60;;
1024;SDS011;501;48.214;11.350;2024-02-26T18:48:22;5.07;;;3.57;;
1024;SDS011;501;48.214;11.350;2024-02-26T18:50:50;4.03;;;3.60;;
1024;SDS011;501;48.214;11.350;2024-02-26T18:53:16;4.57;;;3.67;;
1024;SDS011;501;48.214;11.350;2024-02-26T18:55:43;6.73;;;3.90;;
1024;SDS011;501;48.214;11.350;2024-02-26T18:58:09;5.93;;;5.00;;
1024;SDS011;501;48.214;11.350;2024-02-26T19:00:35;6.07;;;3.87;;
1024;SDS011;501;48.214;11.350;2024-02-26T19:12:42;5.87;;;4.13;;
1024;SDS011;501;48.214;11.350;2024-02-26T19:15:09;7.67;;;4.70;;
1024;SDS011;501;48.214;11.350;2024-02-26T19:17:36;5.80;;;4.10;;
1024;SDS011;501;48.214;11.350;2024-02-26T19:20:01;4.43;;;3.37;;
1024;SDS011;501;48.214;11.350;2024-02-26T19:22:27;4.27;;;3.30;;
1024;SDS011;501;48.214;11.350;2024-02-26T19:24:53;5.90;;;3.20;;
1024;SDS011;501;48.214;11.350;2024-02-26T19:27:18;5.37;;;4.23;;
1024;SDS011;501;48.214;11.350;2024-02-26T19:29:44;4.27;;;3.93;;
1024;SDS011;501;48.214;11.350;2024-02-26T19:32:10;6.70;;;4.70;;
1024;SDS011;501;48.214;11.350;2024-02-26T19:34:36;5.83;;;4.20;;
1024;SDS011;501;48.214;11.350;2024-02-26T19:37:03;4.60;;;4.20;;
1024;SDS011;501;48.214;11.350;2024-02-26T19:39:29;7.50;;;4.50;;
1024;SDS011;501;48.214;11.350;2024-02-26T19:41:55;4.90;;;4.17;;
1024;SDS011;501;48.214;11.350;2024-02-26T19:44:21;5.07;;;4.57;;
1024;SDS011;501;48.214;11.350;2024-02-26T19:46:46;5.27;;;4.77;;
1024;SDS011;501;48.214;11.350;2024-02-26T19:49:12;4.53;;;4.13;;
1024;SDS011;501;48.214;11.350;2024-02-26T19:56:48;6.50;;;4.60;;
1024;SDS011;501;48.214;11.350;2024-02-26T19:59:14;4.83;;;3.90;;
1024;SDS011;501;48.214;11.350;2024-02-26T20:46:52;3.37;;;3.07;;
1024;SDS011;501;48.214;11.350;2024-02-26T20:49:20;6.33;;;3.60;;
1024;SDS011;501;48.214;11.350;2024-02-26T20:51:46;3.50;;;3.20;;
1024;SDS011;501;48.214;11.350;2024-02-26T20:54:12;7.43;;;3.40;;
1024;SDS011;501;48.214;11.350;2024-02-26T20:56:38;6.17;;;3.20;;
1024;SDS011;501;48.214;11.350;2024-02-26T20:59:05;3.63;;;3.13;;
1024;SDS011;501;48.214;11.350;2024-02-26T21:01:32;4.30;;;3.20;;
1024;SDS011;501;48.214;11.350;2024-02-26T21:03:59;6.43;;;3.60;;
1024;SDS011;501;48.214;11.350;2024-02-26T21:06:24;4.13;;;3.60;;
1024;SDS011;501;48.214;11.350;2024-02-26T21:08:50;3.53;;;3.10;;
1024;SDS011;501;48.214;11.350;2024-02-26T21:11:17;3.60;;;3.20;;
1024;SDS011;501;48.214;11.350;2024-02-26T21:13:43;3.20;;;2.90;;
1024;SDS011;501;48.214;11.350;2024-02-26T21:16:08;3.73;;;3.33;;
1024;SDS011;501;48.214;11.350;2024-02-26T21:18:34;3.57;;;3.20;;
